Terminal Aerodrome Forecast
Issued by NWS

Home | Current Version | Previous Version | Text Only | Print | Product List | Glossary On
Versions: 1 2 3 4 5 6 7 8 9 10 11 12 13 14 15 16 17 18 19 20 21 22 23 24 25
000
FTUS46 KLOX 271700
TAFLAX
TAF
KLAX 271731Z 2718/2824 03004KT P6SM FEW040 SCT090 SCT180
     FM272000 27008KT P6SM FEW200
     FM280500 VRB03KT P6SM SKC
     FM280900 VRB03KT 5SM BR SKC
     FM281600 04006KT P6SM SKC
     FM282000 26008KT P6SM FEW200=

USA.gov is the U.S. government's official web portal to all federal, state and local government web resources and services.